createdAt,value
2018-04-12T00:00:02.756Z,4.60
2018-04-12T00:02:34.457Z,6.30
2018-04-12T00:05:05.609Z,5.03
2018-04-12T00:07:42.193Z,5.43
2018-04-12T00:10:14.416Z,6.07
2018-04-12T00:12:45.836Z,5.15
2018-04-12T00:15:16.453Z,5.30
2018-04-12T00:17:50.051Z,4.47
2018-04-12T00:20:21.408Z,4.53
2018-04-12T00:22:53.172Z,4.40
2018-04-12T00:25:26.748Z,8.50
2018-04-12T00:27:59.144Z,4.53
2018-04-12T00:30:30.432Z,5.35
2018-04-12T00:33:01.663Z,4.22
2018-04-12T00:35:33.860Z,4.95
2018-04-12T00:38:04.855Z,5.12
2018-04-12T00:40:36.065Z,5.25
2018-04-12T00:43:07.407Z,4.60
2018-04-12T00:45:56.825Z,4.43
2018-04-12T00:48:29.764Z,5.03
2018-04-12T00:51:04.004Z,4.87
2018-04-12T00:53:45.026Z,5.20
2018-04-12T00:56:21.464Z,8.30
2018-04-12T00:58:55.309Z,5.50
2018-04-12T01:01:26.898Z,6.22
2018-04-12T01:03:58.462Z,5.03
2018-04-12T01:06:31.398Z,4.35
2018-04-12T01:09:03.602Z,4.20
2018-04-12T01:11:39.974Z,5.87
2018-04-12T01:14:11.619Z,8.30
2018-04-12T01:16:42.387Z,4.18
2018-04-12T01:25:21.927Z,5.62
2018-04-12T01:27:51.389Z,4.68
2018-04-12T01:30:25.588Z,7.55
2018-04-12T01:33:08.170Z,5.68
2018-04-12T01:35:43.366Z,5.37
2018-04-12T01:38:15.314Z,6.65
2018-04-12T01:40:45.553Z,6.43
2018-04-12T01:43:14.168Z,4.70
2018-04-12T01:45:42.686Z,6.30
2018-04-12T01:48:11.330Z,5.03
2018-04-12T01:50:39.865Z,5.85
2018-04-12T01:53:08.706Z,5.65
2018-04-12T01:55:37.600Z,5.97
2018-04-12T01:58:06.208Z,4.97
2018-04-12T02:00:34.755Z,4.65
2018-04-12T02:03:03.370Z,6.62
2018-04-12T02:05:31.879Z,4.95
2018-04-12T02:08:00.502Z,5.72
2018-04-12T02:10:29.086Z,5.22
2018-04-12T02:12:57.671Z,6.53
2018-04-12T02:15:26.338Z,5.47
2018-04-12T02:17:59.635Z,5.45
2018-04-12T02:20:28.206Z,5.00
2018-04-12T02:22:56.740Z,6.25
2018-04-12T02:25:25.271Z,6.43
2018-04-12T02:27:54.207Z,5.22
2018-04-12T02:30:23.384Z,5.12
2018-04-12T02:32:53.362Z,5.32
2018-04-12T02:35:24.246Z,5.43
2018-04-12T02:37:53.369Z,6.12
2018-04-12T02:40:22.869Z,6.55
2018-04-12T02:42:54.063Z,5.37
2018-04-12T02:45:23.160Z,7.03
2018-04-12T02:47:52.856Z,5.53
2018-04-12T02:50:23.120Z,7.10
2018-04-12T02:52:51.764Z,6.65
2018-04-12T02:55:21.386Z,6.80
2018-04-12T02:57:49.967Z,7.57
2018-04-12T03:00:18.656Z,6.10
2018-04-12T03:02:47.375Z,8.40
2018-04-12T03:05:16.069Z,6.37
2018-04-12T03:07:45.018Z,7.18
2018-04-12T03:10:13.628Z,7.87
2018-04-12T03:12:45.353Z,8.05
2018-04-12T03:15:13.839Z,6.93
2018-04-12T03:17:45.084Z,5.65
2018-04-12T03:20:13.601Z,5.68
2018-04-12T03:22:42.422Z,6.45
2018-04-12T03:25:10.904Z,7.70
2018-04-12T03:27:41.752Z,7.20
2018-04-12T03:30:11.992Z,6.97
2018-04-12T03:32:43.203Z,9.27
2018-04-12T03:35:11.780Z,6.65
2018-04-12T03:37:40.300Z,6.85
2018-04-12T03:40:09.181Z,7.40
2018-04-12T03:42:37.884Z,8.88
2018-04-12T03:45:07.081Z,7.80
2018-04-12T03:47:35.743Z,7.07
2018-04-12T03:50:04.934Z,9.60
2018-04-12T03:52:33.537Z,8.88
2018-04-12T03:55:02.132Z,7.10
2018-04-12T03:57:30.782Z,7.95
2018-04-12T03:59:59.371Z,7.28
2018-04-12T04:02:27.981Z,7.50
2018-04-12T04:04:56.742Z,9.25
2018-04-12T04:07:25.880Z,7.12
2018-04-12T04:09:54.450Z,7.55
2018-04-12T04:12:23.005Z,9.27
2018-04-12T04:15:00.563Z,9.13
2018-04-12T04:21:48.236Z,8.25
2018-04-12T04:24:16.926Z,8.00
2018-04-12T04:26:51.240Z,9.30
2018-04-12T04:29:19.922Z,9.55
2018-04-12T04:31:48.407Z,10.13
2018-04-12T04:34:16.884Z,10.02
2018-04-12T04:36:45.384Z,9.02
2018-04-12T04:39:13.999Z,7.60
2018-04-12T04:41:42.528Z,7.90
2018-04-12T04:44:11.028Z,7.87
2018-04-12T04:46:40.341Z,8.45
2018-04-12T04:49:09.013Z,8.02
2018-04-12T04:51:37.558Z,7.12
2018-04-12T04:54:06.183Z,9.77
2018-04-12T04:56:35.025Z,11.88
2018-04-12T04:59:03.828Z,9.98
2018-04-12T05:01:32.488Z,7.12
2018-04-12T05:04:01.056Z,9.10
2018-04-12T05:06:29.777Z,10.43
2018-04-12T05:08:58.461Z,10.10
2018-04-12T05:11:27.311Z,9.38
2018-04-12T05:13:56.290Z,11.30
2018-04-12T05:16:24.888Z,8.63
2018-04-12T05:18:54.430Z,8.15
2018-04-12T05:21:23.332Z,9.43
2018-04-12T05:23:52.047Z,8.15
2018-04-12T05:26:20.796Z,10.25
2018-04-12T05:28:49.331Z,8.65
2018-04-12T05:31:17.975Z,9.57
2018-04-12T05:33:46.849Z,8.57
2018-04-12T05:36:15.485Z,8.57
2018-04-12T05:38:44.172Z,9.32
2018-04-12T05:41:12.820Z,10.15
2018-04-12T05:43:41.407Z,12.48
2018-04-12T05:46:10.297Z,8.65
2018-04-12T05:48:39.148Z,8.55
2018-04-12T05:51:09.341Z,11.98
2018-04-12T05:53:37.907Z,8.73
2018-04-12T05:56:06.672Z,14.70
2018-04-12T05:58:37.322Z,9.00
2018-04-12T06:01:07.618Z,8.55
2018-04-12T06:03:36.229Z,9.65
2018-04-12T06:06:04.864Z,10.27
2018-04-12T06:08:33.610Z,9.77
2018-04-12T06:11:02.261Z,8.40
2018-04-12T06:13:30.897Z,9.05
2018-04-12T06:15:59.722Z,9.88
2018-04-12T06:18:29.584Z,7.90
2018-04-12T06:20:58.149Z,9.20
2018-04-12T06:23:26.754Z,6.53
2018-04-12T06:25:55.663Z,9.93
2018-04-12T06:28:24.212Z,6.80
2018-04-12T06:30:52.785Z,9.93
2018-04-12T06:33:21.344Z,6.85
2018-04-12T06:35:50.252Z,8.10
2018-04-12T06:38:18.850Z,9.73
2018-04-12T06:40:47.586Z,8.98
2018-04-12T06:43:16.330Z,12.27
2018-04-12T06:45:47.277Z,11.50
2018-04-12T06:48:15.824Z,11.38
2018-04-12T06:50:44.420Z,8.77
2018-04-12T06:53:13.476Z,10.40
2018-04-12T06:55:42.045Z,10.30
2018-04-12T06:58:10.574Z,12.10
2018-04-12T07:00:39.184Z,9.88
2018-04-12T07:03:08.200Z,13.18
2018-04-12T07:05:36.791Z,11.85
2018-04-12T07:08:05.670Z,13.85
2018-04-12T07:10:34.415Z,12.90
2018-04-12T07:13:03.108Z,7.57
2018-04-12T07:15:31.777Z,9.32
2018-04-12T07:18:00.289Z,11.65
2018-04-12T07:20:28.991Z,8.07
2018-04-12T07:22:57.866Z,10.30
2018-04-12T07:25:26.481Z,9.20
2018-04-12T07:27:55.362Z,10.50
2018-04-12T07:30:24.001Z,11.18
2018-04-12T07:32:52.945Z,12.73
2018-04-12T07:35:21.494Z,6.85
2018-04-12T07:37:51.445Z,8.32
2018-04-12T07:40:20.100Z,10.45
2018-04-12T07:42:48.886Z,8.63
2018-04-12T07:45:17.471Z,9.82
2018-04-12T07:47:46.091Z,11.05
2018-04-12T07:50:14.959Z,7.78
2018-04-12T07:52:43.557Z,8.85
2018-04-12T07:55:12.054Z,7.87
2018-04-12T07:57:40.992Z,7.65
2018-04-12T08:00:10.307Z,6.12
2018-04-12T08:02:38.901Z,7.40
2018-04-12T08:05:08.677Z,4.97
2018-04-12T08:07:37.240Z,4.87
2018-04-12T08:10:05.840Z,5.30
2018-04-12T08:12:34.681Z,6.53
2018-04-12T08:15:03.328Z,4.72
2018-04-12T08:17:31.956Z,6.68
2018-04-12T08:20:00.611Z,7.87
2018-04-12T08:22:29.304Z,10.32
2018-04-12T08:24:58.004Z,8.30
2018-04-12T08:27:26.544Z,9.90
2018-04-12T08:29:55.649Z,6.43
2018-04-12T08:32:24.413Z,6.53
2018-04-12T08:34:53.032Z,9.18
2018-04-12T08:37:21.616Z,7.90
2018-04-12T08:39:50.184Z,6.78
2018-04-12T08:42:19.184Z,6.62
2018-04-12T08:44:47.761Z,4.60
2018-04-12T08:47:16.342Z,4.20
2018-04-12T08:49:45.179Z,6.28
2018-04-12T08:52:14.859Z,5.43
2018-04-12T08:54:43.552Z,4.12
2018-04-12T08:57:12.176Z,6.53
2018-04-12T08:59:41.959Z,3.97
2018-04-12T09:02:10.774Z,3.80
2018-04-12T09:04:39.300Z,4.07
2018-04-12T09:07:07.968Z,3.80
2018-04-12T09:09:36.576Z,3.50
2018-04-12T09:12:05.272Z,2.40
2018-04-12T09:14:33.824Z,2.58
2018-04-12T09:19:44.027Z,2.67
2018-04-12T09:22:12.703Z,3.17
2018-04-12T09:24:42.325Z,1.73
2018-04-12T09:27:11.825Z,1.58
2018-04-12T09:29:40.908Z,4.25
2018-04-12T09:32:09.420Z,2.67
2018-04-12T09:34:38.040Z,1.67
2018-04-12T09:37:06.573Z,1.23
2018-04-12T09:39:35.344Z,0.98
2018-04-12T09:42:03.856Z,1.70
2018-04-12T09:44:32.383Z,1.92
2018-04-12T09:47:00.903Z,1.67
2018-04-12T09:49:29.478Z,2.58
2018-04-12T09:51:58.144Z,1.50
2018-04-12T13:53:01.824Z,0.55
2018-04-12T13:55:32.887Z,2.62
2018-04-12T13:58:09.710Z,3.22
2018-04-12T14:00:43.884Z,1.20
2018-04-12T14:03:15.875Z,0.88
2018-04-12T14:05:55.104Z,1.02
2018-04-12T14:08:28.502Z,0.70
2018-04-12T14:11:02.092Z,1.05
2018-04-12T14:13:31.024Z,0.45
2018-04-12T14:15:59.624Z,0.57
2018-04-12T14:18:28.704Z,0.90
2018-04-12T14:20:59.287Z,2.15
2018-04-12T14:23:29.701Z,1.23
2018-04-12T14:25:58.489Z,0.43
2018-04-12T14:29:09.783Z,1.98
2018-04-12T14:31:41.761Z,1.17
2018-04-12T14:34:15.655Z,1.52
2018-04-12T14:36:46.448Z,2.10
2018-04-12T14:39:15.632Z,0.45
2018-04-12T14:41:51.077Z,1.00
2018-04-12T14:44:21.980Z,1.42
2018-04-12T14:46:51.468Z,0.80
2018-04-12T14:49:23.466Z,0.65
2018-04-12T14:51:52.493Z,2.60
2018-04-12T14:54:21.777Z,0.65
2018-04-12T14:56:51.296Z,0.45
2018-04-12T14:59:26.459Z,0.47
2018-04-12T15:01:56.281Z,0.52
2018-04-12T15:04:25.637Z,1.40
2018-04-12T15:06:55.560Z,1.30
2018-04-12T15:09:25.015Z,0.60
2018-04-12T15:11:54.433Z,0.88
2018-04-12T15:14:23.236Z,0.55
2018-04-12T15:16:53.580Z,1.85
2018-04-12T15:19:24.147Z,1.08
2018-04-12T15:21:54.074Z,0.65
2018-04-12T15:24:22.812Z,0.00
2018-04-12T15:26:54.040Z,0.62
2018-04-12T15:29:23.511Z,0.50
2018-04-12T15:31:53.082Z,0.20
2018-04-12T15:34:23.791Z,2.92
2018-04-12T15:36:53.487Z,0.93
2018-04-12T15:39:26.510Z,1.75
2018-04-12T15:45:06.284Z,2.08
2018-04-12T15:47:36.774Z,0.40
2018-04-12T15:50:11.743Z,0.95
2018-04-12T15:52:49.845Z,0.50
2018-04-12T15:55:19.557Z,2.58
2018-04-12T15:57:49.821Z,0.32
2018-04-12T16:00:20.482Z,1.12
2018-04-12T16:02:50.561Z,1.08
2018-04-12T16:05:22.698Z,0.95
2018-04-12T16:07:54.382Z,0.40
2018-04-12T16:10:26.306Z,2.47
2018-04-12T16:12:59.380Z,0.40
2018-04-12T16:15:29.118Z,0.40
2018-04-12T16:17:57.716Z,0.88
2018-04-12T16:20:26.559Z,1.48
2018-04-12T16:26:03.822Z,1.00
2018-04-12T16:28:35.683Z,0.70
2018-04-12T16:31:06.633Z,0.55
2018-04-12T16:33:38.182Z,1.98
2018-04-12T16:36:10.663Z,1.02
2018-04-12T16:38:43.014Z,0.60
2018-04-12T16:41:16.616Z,0.28
2018-04-12T16:43:49.543Z,11.50
2018-04-12T16:46:27.156Z,2.37
2018-04-12T16:49:10.863Z,1.12
2018-04-12T16:51:48.263Z,0.73
2018-04-12T16:54:26.768Z,0.90
2018-04-12T16:56:56.143Z,1.35
2018-04-12T16:59:26.315Z,0.30
2018-04-12T17:01:57.114Z,0.70
2018-04-12T17:04:29.709Z,1.67
2018-04-12T17:07:05.919Z,1.62
2018-04-12T17:09:37.665Z,2.35
2018-04-12T17:12:10.297Z,0.57
2018-04-12T17:14:47.526Z,2.92
2018-04-12T17:17:19.696Z,1.48
2018-04-12T17:19:49.131Z,1.40
2018-04-12T17:22:18.309Z,0.30
2018-04-12T17:24:48.184Z,2.25
2018-04-12T17:27:18.918Z,2.65
2018-04-12T17:29:49.876Z,2.35
2018-04-12T17:32:20.507Z,1.20
2018-04-12T17:34:50.164Z,0.45
2018-04-12T17:37:19.196Z,1.10
2018-04-12T17:39:53.128Z,0.93
2018-04-12T17:42:27.184Z,1.00
2018-04-12T17:44:57.545Z,1.45
2018-04-12T17:47:27.193Z,0.35
2018-04-12T17:49:56.758Z,2.40
2018-04-12T17:52:29.853Z,1.70
2018-04-12T17:54:59.168Z,0.70
2018-04-12T17:57:28.330Z,1.45
2018-04-12T17:59:57.352Z,0.30
2018-04-12T18:02:26.545Z,1.55
2018-04-12T18:04:55.777Z,0.95
2018-04-12T18:07:25.202Z,0.17
2018-04-12T18:09:54.247Z,0.60
2018-04-12T18:12:23.879Z,1.30
2018-04-12T18:14:54.072Z,1.48
2018-04-12T18:17:23.023Z,2.60
2018-04-12T18:19:52.056Z,0.73
2018-04-12T18:22:21.467Z,2.20
2018-04-12T18:24:50.764Z,1.10
2018-04-12T18:27:19.755Z,0.85
2018-04-12T18:29:49.165Z,1.15
2018-04-12T18:32:18.663Z,1.80
2018-04-12T18:34:52.224Z,0.82
2018-04-12T18:37:21.602Z,0.40
2018-04-12T18:39:51.113Z,0.95
2018-04-12T18:42:20.186Z,1.02
2018-04-12T18:44:51.923Z,1.27
2018-04-12T18:47:24.868Z,2.25
2018-04-12T18:50:00.634Z,2.42
2018-04-12T18:52:31.182Z,3.03
2018-04-12T18:55:00.344Z,2.05
2018-04-12T18:57:29.260Z,2.25
2018-04-12T18:59:58.476Z,2.65
2018-04-12T19:02:27.626Z,2.80
2018-04-12T19:04:57.355Z,1.48
2018-04-12T19:07:30.251Z,1.40
2018-04-12T19:09:59.334Z,1.50
2018-04-12T19:12:28.323Z,1.90
2018-04-12T19:14:57.622Z,4.93
2018-04-12T19:17:27.233Z,3.90
2018-04-12T19:19:56.450Z,2.62
2018-04-12T19:22:25.883Z,2.30
2018-04-12T19:24:59.672Z,1.23
2018-04-12T19:27:29.096Z,1.30
2018-04-12T19:30:03.795Z,1.85
2018-04-12T19:32:32.917Z,1.75
2018-04-12T19:35:10.990Z,1.27
2018-04-12T19:37:41.713Z,3.03
2018-04-12T19:40:10.696Z,1.58
2018-04-12T19:42:39.719Z,3.50
2018-04-12T19:45:21.256Z,1.35
2018-04-12T19:47:50.220Z,5.12
2018-04-12T19:50:19.653Z,2.53
2018-04-12T19:52:49.706Z,2.87
2018-04-12T19:55:21.388Z,1.30
2018-04-12T19:57:51.403Z,2.72
2018-04-12T20:00:20.863Z,1.90
2018-04-12T20:02:49.942Z,2.87
2018-04-12T20:05:19.430Z,2.55
2018-04-12T20:07:51.499Z,4.10
2018-04-12T20:10:22.246Z,3.30
2018-04-12T20:12:52.229Z,3.60
2018-04-12T20:15:22.157Z,3.28
2018-04-12T20:17:58.894Z,2.80
2018-04-12T20:20:32.161Z,2.53
2018-04-12T20:23:05.353Z,2.10
2018-04-12T20:25:35.939Z,3.20
2018-04-12T20:28:09.119Z,2.60
2018-04-12T20:30:47.952Z,4.43
2018-04-12T20:33:20.857Z,3.37
2018-04-12T20:35:52.163Z,3.47
2018-04-12T20:38:22.235Z,4.18
2018-04-12T20:40:51.874Z,3.65
2018-04-12T20:43:21.675Z,2.30
2018-04-12T20:45:51.799Z,3.20
2018-04-12T20:48:22.313Z,4.43
2018-04-12T20:50:51.595Z,4.80
2018-04-12T20:53:21.122Z,2.67
2018-04-12T20:55:50.733Z,2.50
2018-04-12T20:58:20.611Z,4.50
2018-04-12T21:00:50.469Z,3.20
2018-04-12T21:03:20.256Z,4.62
2018-04-12T21:05:50.455Z,5.03
2018-04-12T21:08:21.465Z,4.90
2018-04-12T21:10:51.608Z,5.22
2018-04-12T21:13:21.094Z,2.25
2018-04-12T21:15:51.545Z,4.28
2018-04-12T21:18:21.482Z,5.35
2018-04-12T21:20:50.445Z,6.10
2018-04-12T21:23:20.196Z,3.15
2018-04-12T21:25:50.321Z,5.62
2018-04-12T21:28:20.191Z,5.72
2018-04-12T21:30:49.271Z,4.37
2018-04-12T21:33:18.397Z,3.85
2018-04-12T21:35:47.456Z,2.85
2018-04-12T21:38:17.086Z,4.97
2018-04-12T21:40:46.171Z,4.93
2018-04-12T21:43:15.294Z,7.28
2018-04-12T21:45:46.721Z,5.55
2018-04-12T21:48:15.933Z,3.95
2018-04-12T21:50:45.117Z,6.55
2018-04-12T21:53:14.770Z,4.18
2018-04-12T21:55:43.768Z,8.80
2018-04-12T21:58:12.975Z,4.47
2018-04-12T22:00:42.012Z,5.00
2018-04-12T22:03:11.518Z,4.43
2018-04-12T22:05:41.792Z,3.53
2018-04-12T22:08:10.883Z,5.47
2018-04-12T22:10:40.180Z,4.65
2018-04-12T22:13:10.751Z,4.20
2018-04-12T22:15:39.837Z,6.12
2018-04-12T22:18:08.846Z,5.70
2018-04-12T22:20:39.243Z,4.87
2018-04-12T22:23:08.677Z,4.82
2018-04-12T22:25:37.759Z,4.60
2018-04-12T22:28:08.499Z,7.82
2018-04-12T22:30:37.692Z,7.85
2018-04-12T22:33:06.864Z,5.12
2018-04-12T22:35:35.887Z,8.98
2018-04-12T22:38:05.036Z,4.72
2018-04-12T22:40:34.193Z,5.65
2018-04-12T22:43:03.579Z,7.22
2018-04-12T22:45:34.071Z,5.45
2018-04-12T22:48:03.236Z,8.38
2018-04-12T22:50:32.575Z,10.40
2018-04-12T22:53:01.916Z,5.30
2018-04-12T22:55:31.068Z,6.37
2018-04-12T22:58:00.128Z,6.82
2018-04-12T23:00:33.174Z,6.40
2018-04-12T23:03:02.256Z,8.48
2018-04-12T23:05:31.527Z,5.55
2018-04-12T23:08:00.690Z,11.48
2018-04-12T23:10:31.261Z,6.82
2018-04-12T23:13:00.656Z,5.68
2018-04-12T23:15:30.023Z,5.25
2018-04-12T23:17:59.317Z,6.20
2018-04-12T23:20:28.398Z,6.75
2018-04-12T23:22:57.429Z,9.07
2018-04-12T23:25:26.515Z,7.40
2018-04-12T23:27:56.404Z,7.75
2018-04-12T23:30:25.593Z,6.12
2018-04-12T23:32:55.366Z,5.90
2018-04-12T23:35:30.150Z,7.82
2018-04-12T23:37:59.217Z,6.70
2018-04-12T23:40:28.295Z,9.02
2018-04-12T23:42:57.441Z,8.30
2018-04-12T23:45:27.104Z,5.12
2018-04-12T23:47:56.132Z,6.37
2018-04-12T23:50:25.176Z,7.57
2018-04-12T23:52:54.536Z,7.20
2018-04-12T23:55:23.642Z,7.03
2018-04-12T23:57:53.887Z,10.30
